Time;durP1;ratioP1;P1;durP2;ratioP2;P2;SDS_P1;SDS_P2;PMS_P1;PMS_P2;Temp;Humidity;BMP_temperature;BMP_pressure;BME280_temperature;BME280_humidity;BME280_pressure;Samples;Min_cycle;Max_cycle;Signal;HPM_P1;HPM_P2
2023/04/07 00:00:40;;;;;;;8.97;6.50;;;;;;;6.86;100.00;153121.44;5082342;28;20540;-76
2023/04/07 00:03:07;;;;;;;8.30;6.63;;;;;;;6.84;100.00;153116.22;5041862;28;20463;-76
2023/04/07 00:05:35;;;;;;;8.67;6.60;;;;;;;6.84;100.00;153117.53;5069050;28;21008;-76
2023/04/07 00:08:02;;;;;;;8.70;6.63;;;;;;;6.85;100.00;153120.13;5074185;28;20458;-76
2023/04/07 00:10:29;;;;;;;8.40;6.23;;;;;;;6.79;100.00;153103.31;5093010;28;20565;-76
2023/04/07 00:12:55;;;;;;;7.63;5.93;;;;;;;6.79;100.00;153104.63;5060515;28;20442;-77
2023/04/07 00:15:22;;;;;;;9.80;6.03;;;;;;;6.79;100.00;153104.63;5055122;28;20507;-77
2023/04/07 00:17:49;;;;;;;6.37;5.40;;;;;;;6.70;100.00;153081.38;5068517;28;20499;-77
2023/04/07 00:20:16;;;;;;;9.60;6.40;;;;;;;6.76;100.00;153096.88;5057414;28;20458;-77
2023/04/07 00:22:44;;;;;;;10.20;7.33;;;;;;;6.74;100.00;153091.72;5076269;28;20477;-77
2023/04/07 00:25:10;;;;;;;8.27;5.93;;;;;;;6.75;100.00;153094.31;5075237;28;20457;-77
2023/04/07 00:27:37;;;;;;;7.63;6.10;;;;;;;6.77;100.00;153099.47;5090375;28;20922;-77
2023/04/07 00:30:07;;;;;;;7.40;5.80;;;;;;;6.79;100.00;153104.63;5042918;28;20478;-77
2023/04/07 00:32:33;;;;;;;8.03;6.53;;;;;;;6.78;100.00;153102.03;5038915;28;20439;-77
2023/04/07 00:35:00;;;;;;;7.80;6.20;;;;;;;6.73;100.00;153090.41;5071151;28;20458;-77
2023/04/07 00:37:27;;;;;;;8.40;5.97;;;;;;;6.73;100.00;153089.13;5054995;28;20446;-77
2023/04/07 00:39:56;;;;;;;9.50;6.83;;;;;;;6.73;100.00;153089.13;5038999;28;20911;-77
2023/04/07 00:42:23;;;;;;;7.70;6.50;;;;;;;6.71;100.00;153083.97;5055762;28;20500;-77
2023/04/07 00:44:50;;;;;;;9.40;6.90;;;;;;;6.69;100.00;153080.13;5055435;28;20458;-77
2023/04/07 00:47:16;;;;;;;8.47;6.97;;;;;;;6.68;100.00;153077.50;5058813;28;20489;-77
2023/04/07 00:49:43;;;;;;;9.00;6.60;;;;;;;6.68;100.00;153076.22;5069353;28;20438;-76
2023/04/07 00:52:11;;;;;;;7.00;6.27;;;;;;;6.62;100.00;153062.03;5055246;28;20454;-77
2023/04/07 00:54:38;;;;;;;9.03;6.53;;;;;;;6.59;100.00;153054.28;5043891;28;21108;-77
2023/04/07 00:57:06;;;;;;;10.50;6.80;;;;;;;6.61;100.00;153059.47;5057115;28;20522;-77
2023/04/07 00:59:33;;;;;;;11.47;7.50;;;;;;;6.65;100.00;153068.47;5055500;28;20585;-77
2023/04/07 01:02:04;;;;;;;8.63;6.17;;;;;;;6.63;100.00;153064.63;5055203;28;20458;-77
2023/04/07 01:04:33;;;;;;;8.87;6.90;;;;;;;6.67;100.00;153073.66;5073994;28;20556;-77
2023/04/07 01:07:05;;;;;;;8.93;6.57;;;;;;;6.63;100.00;153064.63;5055096;28;20434;-77
2023/04/07 01:09:38;;;;;;;10.67;7.20;;;;;;;6.62;100.00;153060.72;5054712;28;20932;-77
2023/04/07 01:12:10;;;;;;;9.30;6.80;;;;;;;6.61;100.00;153058.16;5040078;28;20469;-77
2023/04/07 01:14:41;;;;;;;8.90;6.27;;;;;;;6.62;100.00;153060.72;5056473;28;20470;-77
2023/04/07 01:17:25;;;;;;;11.10;6.40;;;;;;;6.62;100.00;153062.03;5054070;28;20469;-77
2023/04/07 01:19:56;;;;;;;11.17;7.20;;;;;;;6.63;100.00;153063.31;5047758;28;20443;-77
2023/04/07 01:22:27;;;;;;;7.93;7.00;;;;;;;6.62;100.00;153062.03;5036131;28;20458;-77
2023/04/07 01:25:19;;;;;;;10.20;7.77;;;;;;;6.65;100.00;153068.47;5041873;28;20515;-77
2023/04/07 01:27:59;;;;;;;10.20;7.20;;;;;;;6.62;100.00;153062.03;5066407;28;20530;-77
2023/04/07 01:30:28;;;;;;;8.33;6.13;;;;;;;6.62;100.00;153062.03;5054765;28;20517;-77
2023/04/07 01:32:58;;;;;;;8.53;6.63;;;;;;;6.65;100.00;153068.47;5038250;28;20442;-77
2023/04/07 01:35:27;;;;;;;7.73;6.40;;;;;;;6.61;100.00;153059.47;5055419;28;20442;-77
2023/04/07 01:37:54;;;;;;;9.47;6.57;;;;;;;6.60;100.00;153056.88;5029132;28;20447;-77
2023/04/07 01:40:22;;;;;;;8.90;6.87;;;;;;;6.60;100.00;153056.88;5058041;28;20540;-77
2023/04/07 01:42:49;;;;;;;8.67;7.23;;;;;;;6.61;100.00;153059.47;5054445;28;21067;-77
2023/04/07 01:45:16;;;;;;;10.00;7.73;;;;;;;6.59;100.00;153054.28;5052004;28;20435;-77
2023/04/07 01:47:45;;;;;;;10.27;7.63;;;;;;;6.61;100.00;153058.16;5050964;28;21045;-77
2023/04/07 01:50:12;;;;;;;9.50;7.60;;;;;;;6.59;100.00;153053.00;5034380;28;20501;-77
2023/04/07 01:52:40;;;;;;;9.77;7.57;;;;;;;6.56;100.00;153045.25;5034134;28;20574;-77
2023/04/07 01:55:08;;;;;;;9.93;7.60;;;;;;;6.55;100.00;153043.97;5064676;28;20450;-77
2023/04/07 01:57:39;;;;;;;10.30;7.80;;;;;;;6.56;100.00;153045.25;5034140;28;21028;-77
2023/04/07 02:00:13;;;;;;;10.27;8.20;;;;;;;6.56;100.00;153045.25;5039104;28;20553;-77
2023/04/07 02:02:49;;;;;;;9.60;6.83;;;;;;;6.57;100.00;153049.13;5038914;28;20808;-77
2023/04/07 02:05:19;;;;;;;10.13;7.17;;;;;;;6.57;100.00;153047.81;5068694;28;20457;-77
2023/04/07 02:07:50;;;;;;;9.30;7.93;;;;;;;6.58;100.00;153050.41;5034271;28;20876;-77
2023/04/07 02:10:17;;;;;;;8.20;6.80;;;;;;;6.60;100.00;153056.88;5054804;28;20442;-77
2023/04/07 02:12:45;;;;;;;13.07;8.13;;;;;;;6.62;100.00;153060.72;5047089;28;20443;-77
2023/04/07 02:15:16;;;;;;;11.03;6.93;;;;;;;6.60;100.00;153056.88;5055243;28;20453;-77
2023/04/07 02:17:46;;;;;;;10.03;8.00;;;;;;;6.58;100.00;153050.41;5062307;28;20516;-77
2023/04/07 02:20:15;;;;;;;10.90;7.67;;;;;;;6.61;100.00;153058.16;5073884;28;20955;-77
2023/04/07 02:22:43;;;;;;;8.63;7.17;;;;;;;6.57;100.00;153047.81;5059177;28;20476;-77
2023/04/07 02:25:22;;;;;;;10.97;7.97;;;;;;;6.55;100.00;153043.97;5043028;28;20458;-77
2023/04/07 02:27:49;;;;;;;9.90;7.70;;;;;;;6.53;100.00;153038.81;5054142;28;20441;-77
2023/04/07 02:30:15;;;;;;;9.83;7.17;;;;;;;6.55;100.00;153042.66;5046307;28;20458;-77
2023/04/07 02:32:42;;;;;;;8.70;7.20;;;;;;;6.58;100.00;153050.41;5053831;28;20958;-77
2023/04/07 02:35:09;;;;;;;9.80;7.90;;;;;;;6.57;100.00;153049.13;5053832;28;20508;-77
2023/04/07 02:37:37;;;;;;;10.97;8.07;;;;;;;6.59;100.00;153053.00;5071933;28;20438;-78
2023/04/07 02:40:05;;;;;;;12.67;7.97;;;;;;;6.61;100.00;153059.47;5053585;28;20531;-78
2023/04/07 02:42:32;;;;;;;9.40;7.90;;;;;;;6.64;100.00;153065.91;5081105;28;20425;-77
2023/04/07 02:44:58;;;;;;;11.10;8.37;;;;;;;6.61;100.00;153059.47;5057503;28;20862;-77
2023/04/07 02:47:25;;;;;;;10.73;7.70;;;;;;;6.61;100.00;153058.16;5077447;28;20533;-77
2023/04/07 02:49:52;;;;;;;11.23;8.70;;;;;;;6.64;100.00;153065.91;5053532;28;20874;-77
2023/04/07 02:52:19;;;;;;;9.57;7.83;;;;;;;6.61;100.00;153059.47;5037177;28;20567;-77
2023/04/07 02:54:47;;;;;;;10.43;7.60;;;;;;;6.59;100.00;153054.28;5073310;28;20477;-78
2023/04/07 02:57:14;;;;;;;9.13;7.40;;;;;;;6.61;100.00;153058.16;5054509;28;20464;-78
2023/04/07 02:59:41;;;;;;;10.13;7.90;;;;;;;6.66;100.00;153071.06;5036771;28;20470;-78
2023/04/07 03:02:10;;;;;;;9.60;8.30;;;;;;;6.66;100.00;153071.06;5037321;28;20450;-78
2023/04/07 03:04:37;;;;;;;11.00;8.50;;;;;;;6.68;100.00;153076.22;5067091;28;20479;-78
2023/04/07 03:07:04;;;;;;;10.93;7.10;;;;;;;6.69;100.00;153080.13;5055969;28;20487;-76
2023/04/07 03:09:32;;;;;;;10.43;8.10;;;;;;;6.69;100.00;153078.81;5036685;28;20442;-76
2023/04/07 03:12:01;;;;;;;11.43;8.80;;;;;;;6.67;100.00;153073.66;5061126;28;20493;-77
2023/04/07 03:14:32;;;;;;;12.73;8.70;;;;;;;6.67;100.00;153073.66;5043299;28;20435;-76
2023/04/07 03:17:00;;;;;;;11.47;7.90;;;;;;;6.64;100.00;153065.91;5053200;28;20474;-76
2023/04/07 03:19:27;;;;;;;11.43;8.00;;;;;;;6.64;100.00;153065.91;5074865;28;20508;-78
2023/04/07 03:21:53;;;;;;;10.53;7.70;;;;;;;6.62;100.00;153060.72;5065520;28;20442;-78
2023/04/07 03:24:20;;;;;;;11.90;9.40;;;;;;;6.60;100.00;153055.56;5053531;28;20438;-76
2023/04/07 03:26:47;;;;;;;11.20;8.40;;;;;;;6.64;100.00;153065.91;5055463;28;20441;-76
2023/04/07 03:29:24;;;;;;;10.13;8.77;;;;;;;6.63;100.00;153063.31;5053073;28;20954;-77
2023/04/07 03:31:51;;;;;;;10.60;7.60;;;;;;;6.63;100.00;153064.63;5060861;28;20465;-77
2023/04/07 03:34:21;;;;;;;11.40;8.73;;;;;;;6.62;100.00;153062.03;5064443;28;20497;-76
2023/04/07 03:36:49;;;;;;;10.83;8.73;;;;;;;6.60;100.00;153055.56;5071875;28;20963;-76
2023/04/07 03:39:15;;;;;;;9.57;7.60;;;;;;;6.64;100.00;153065.91;5057701;28;20943;-76
2023/04/07 03:41:42;;;;;;;13.23;8.80;;;;;;;6.65;100.00;153068.47;5051751;28;20431;-77
2023/04/07 03:44:09;;;;;;;12.17;8.80;;;;;;;6.67;100.00;153073.66;5039680;28;20442;-77
2023/04/07 03:46:39;;;;;;;10.90;8.87;;;;;;;6.66;100.00;153071.06;5070773;28;20449;-76
2023/04/07 03:49:06;;;;;;;9.60;8.23;;;;;;;6.65;100.00;153068.47;5075564;28;20426;-76
2023/04/07 03:51:33;;;;;;;11.83;9.03;;;;;;;6.65;100.00;153068.47;5039934;28;20805;-77
2023/04/07 03:54:01;;;;;;;10.10;7.63;;;;;;;6.63;100.00;153064.63;5042062;28;21012;-77
2023/04/07 03:56:37;;;;;;;10.53;8.03;;;;;;;6.64;100.00;153065.91;5049902;28;20457;-77
2023/04/07 03:59:04;;;;;;;10.30;8.20;;;;;;;6.65;100.00;153068.47;5059008;28;20951;-77
2023/04/07 04:01:36;;;;;;;12.90;9.50;;;;;;;6.66;100.00;153071.06;5043949;28;20979;-77
2023/04/07 04:04:16;;;;;;;11.20;8.47;;;;;;;6.64;100.00;153067.22;5049121;28;20442;-77
2023/04/07 04:06:43;;;;;;;10.47;8.13;;;;;;;6.66;100.00;153071.06;5089427;28;20433;-77
2023/04/07 04:09:21;;;;;;;12.27;8.97;;;;;;;6.62;100.00;153060.72;5058920;28;20434;-77
2023/04/07 04:11:49;;;;;;;9.70;8.40;;;;;;;6.61;100.00;153058.16;5059463;28;20477;-77
2023/04/07 04:14:16;;;;;;;10.80;8.50;;;;;;;6.61;100.00;153058.16;5039523;28;20434;-76
2023/04/07 04:16:48;;;;;;;10.97;8.23;;;;;;;6.61;100.00;153058.16;5040590;28;20479;-77
2023/04/07 04:19:40;;;;;;;14.27;9.37;;;;;;;6.64;100.00;153065.91;5055854;28;20452;-76
2023/04/07 04:22:27;;;;;;;10.20;8.60;;;;;;;6.66;100.00;153071.06;5081635;28;20457;-77
2023/04/07 04:24:57;;;;;;;13.40;8.60;;;;;;;6.65;100.00;153068.47;5059737;28;20451;-77
2023/04/07 04:27:26;;;;;;;9.43;8.30;;;;;;;6.67;100.00;153073.66;5084770;28;20446;-77
2023/04/07 04:29:59;;;;;;;10.40;8.47;;;;;;;6.66;100.00;153071.06;5050354;28;20468;-76
2023/04/07 04:32:44;;;;;;;11.90;9.10;;;;;;;6.64;100.00;153067.22;5054291;28;20505;-76
2023/04/07 04:35:13;;;;;;;13.80;9.30;;;;;;;6.65;100.00;153068.47;5073678;28;20990;-76
2023/04/07 04:37:50;;;;;;;10.60;8.43;;;;;;;6.67;100.00;153073.66;5039382;28;20458;-76
2023/04/07 04:40:17;;;;;;;11.93;8.97;;;;;;;6.64;100.00;153067.22;5084627;28;20476;-76
2023/04/07 04:42:47;;;;;;;11.40;8.30;;;;;;;6.62;100.00;153062.03;5070489;28;21013;-76
2023/04/07 04:45:15;;;;;;;12.33;9.30;;;;;;;6.64;100.00;153065.91;5055022;28;20449;-77
2023/04/07 04:47:46;;;;;;;10.03;8.27;;;;;;;6.60;100.00;153055.56;5044919;28;20949;-77
2023/04/07 04:50:14;;;;;;;11.37;9.47;;;;;;;6.60;100.00;153055.56;5038523;28;20458;-76
2023/04/07 04:52:42;;;;;;;12.53;9.70;;;;;;;6.59;100.00;153053.00;5053519;28;20469;-78
2023/04/07 04:55:16;;;;;;;14.67;9.83;;;;;;;6.59;100.00;153053.00;5075445;28;20453;-78
2023/04/07 04:57:44;;;;;;;11.63;8.80;;;;;;;6.57;100.00;153047.81;5059184;28;20433;-77
2023/04/07 05:00:14;;;;;;;10.33;8.30;;;;;;;6.53;100.00;153037.50;5048218;28;20443;-77
2023/04/07 05:02:45;;;;;;;11.57;8.70;;;;;;;6.52;100.00;153036.22;5052143;28;20484;-78
2023/04/07 05:05:13;;;;;;;12.43;9.13;;;;;;;6.54;100.00;153040.13;5045964;28;20500;-78
2023/04/07 05:07:40;;;;;;;10.67;8.80;;;;;;;6.52;100.00;153036.22;5053179;28;20480;-78
2023/04/07 05:10:10;;;;;;;11.50;8.97;;;;;;;6.55;100.00;153043.97;5047908;28;20446;-78
2023/04/07 05:12:42;;;;;;;10.43;8.83;;;;;;;6.55;100.00;153043.97;5070042;28;20915;-78
2023/04/07 05:15:10;;;;;;;12.37;9.33;;;;;;;6.54;100.00;153040.13;5071223;28;20445;-78
2023/04/07 05:17:37;;;;;;;13.53;10.00;;;;;;;6.51;100.00;153033.63;5055122;28;20510;-78
2023/04/07 05:20:06;;;;;;;11.20;8.57;;;;;;;6.51;100.00;153033.63;5054346;28;20738;-76
2023/04/07 05:22:38;;;;;;;11.00;8.60;;;;;;;6.55;100.00;153042.66;5046872;28;20914;-78
2023/04/07 05:25:08;;;;;;;13.93;9.90;;;;;;;6.59;100.00;153054.28;5063377;28;20472;-77
2023/04/07 05:27:35;;;;;;;12.80;8.90;;;;;;;6.59;100.00;153053.00;5072044;28;20541;-77
2023/04/07 05:30:09;;;;;;;12.37;9.23;;;;;;;6.55;100.00;153042.66;5070964;28;20716;-77
2023/04/07 05:32:37;;;;;;;12.30;9.00;;;;;;;6.55;100.00;153042.66;5055319;28;20469;-77
2023/04/07 05:35:10;;;;;;;13.50;10.90;;;;;;;6.55;100.00;153043.97;5063690;28;20449;-77
2023/04/07 05:37:42;;;;;;;12.83;8.97;;;;;;;6.57;100.00;153049.13;5047043;28;20438;-76
2023/04/07 05:40:10;;;;;;;13.20;10.50;;;;;;;6.58;100.00;153050.41;5078720;28;20864;-77
2023/04/07 05:42:37;;;;;;;12.07;10.43;;;;;;;6.59;100.00;153053.00;5071965;28;20492;-77
2023/04/07 05:45:05;;;;;;;13.50;9.93;;;;;;;6.59;100.00;153054.28;5045962;28;20457;-77
2023/04/07 05:47:33;;;;;;;13.00;9.23;;;;;;;6.60;100.00;153055.56;5077505;28;20816;-77
2023/04/07 05:50:00;;;;;;;12.90;9.90;;;;;;;6.63;100.00;153063.31;5062742;28;20476;-76
2023/04/07 05:52:27;;;;;;;12.97;9.93;;;;;;;6.62;100.00;153060.72;5045176;28;20466;-77
2023/04/07 05:55:06;;;;;;;13.43;10.70;;;;;;;6.63;100.00;153063.31;5063041;28;20445;-77
2023/04/07 05:57:33;;;;;;;12.50;10.00;;;;;;;6.66;100.00;153071.06;5062547;28;20933;-77
2023/04/07 06:00:02;;;;;;;15.87;10.77;;;;;;;6.67;100.00;153073.66;5054194;28;20816;-76
2023/04/07 06:02:30;;;;;;;13.40;9.60;;;;;;;6.68;100.00;153076.22;5071484;28;20456;-76
2023/04/07 06:04:58;;;;;;;13.20;10.13;;;;;;;6.69;100.00;153078.81;5070673;28;20824;-76
2023/04/07 06:07:25;;;;;;;12.83;10.70;;;;;;;6.73;100.00;153089.13;5087888;28;20546;-77
2023/04/07 06:09:52;;;;;;;13.53;10.57;;;;;;;6.77;100.00;153099.47;5087509;28;20449;-76
2023/04/07 06:12:20;;;;;;;11.60;9.50;;;;;;;6.79;100.00;153103.31;5054293;28;20476;-76
2023/04/07 06:14:52;;;;;;;12.20;9.63;;;;;;;6.80;100.00;153107.22;5045040;28;20451;-76
2023/04/07 06:17:19;;;;;;;12.30;9.50;;;;;;;6.80;100.00;153107.22;5070523;28;20527;-76
2023/04/07 06:19:48;;;;;;;14.00;11.87;;;;;;;6.79;100.00;153104.63;5086218;28;20450;-76
2023/04/07 06:22:15;;;;;;;13.20;10.03;;;;;;;6.81;100.00;153108.47;5054458;28;20481;-76
2023/04/07 06:24:41;;;;;;;13.23;9.90;;;;;;;6.84;100.00;153116.22;5044964;28;20544;-77
2023/04/07 06:27:08;;;;;;;13.97;9.47;;;;;;;6.85;100.00;153120.13;5085985;28;20441;-77
2023/04/07 06:29:36;;;;;;;12.40;9.17;;;;;;;6.87;100.00;153125.28;5070819;28;20544;-77
2023/04/07 06:32:06;;;;;;;14.20;10.67;;;;;;;6.92;100.00;153136.88;5070390;28;21032;-77
2023/04/07 06:34:33;;;;;;;14.63;11.77;;;;;;;7.04;100.00;153167.91;5044895;28;20449;-77
2023/04/07 06:37:00;;;;;;;15.80;10.87;;;;;;;7.11;100.00;153185.94;5053300;28;20519;-77
2023/04/07 06:39:27;;;;;;;13.67;9.80;;;;;;;7.16;100.00;153198.84;5088580;28;20839;-76
2023/04/07 06:41:55;;;;;;;13.70;10.57;;;;;;;7.03;100.00;153166.59;5067648;28;20444;-77
2023/04/07 06:44:22;;;;;;;14.53;11.10;;;;;;;6.98;100.00;153153.69;5069099;28;20448;-77
2023/04/07 06:46:52;;;;;;;16.97;12.50;;;;;;;6.97;100.00;153151.09;5069338;28;20473;-77
2023/04/07 06:49:18;;;;;;;13.97;9.90;;;;;;;7.00;100.00;153157.53;5067700;28;20584;-77
2023/04/07 06:51:45;;;;;;;13.40;10.27;;;;;;;7.02;100.00;153164.00;5087053;28;20453;-77
2023/04/07 06:54:13;;;;;;;13.53;10.87;;;;;;;7.05;100.00;153171.75;5086831;28;20473;-77
2023/04/07 06:56:40;;;;;;;14.43;10.40;;;;;;;7.09;100.00;153182.09;5086636;28;20449;-77
2023/04/07 06:59:07;;;;;;;11.00;9.43;;;;;;;7.13;100.00;153192.41;5067280;28;20472;-77
2023/04/07 07:01:34;;;;;;;12.40;8.90;;;;;;;7.21;100.00;153211.78;5059428;28;20439;-77
2023/04/07 07:04:02;;;;;;;13.00;10.10;;;;;;;7.24;100.00;153220.81;5085469;28;20445;-78
2023/04/07 07:06:30;;;;;;;11.80;9.80;;;;;;;7.29;100.00;153232.44;5068445;28;20485;-77
2023/04/07 07:08:57;;;;;;;9.70;8.70;;;;;;;7.28;100.00;153229.88;5089643;28;20473;-77
2023/04/07 07:11:24;;;;;;;11.07;9.90;;;;;;;7.36;100.00;153251.78;5066209;28;20867;-77
2023/04/07 07:13:51;;;;;;;12.93;9.27;;;;;;;7.43;100.00;153267.31;5090303;28;20473;-77
2023/04/07 07:16:17;;;;;;;13.37;10.70;;;;;;;7.48;100.00;153280.22;5089300;28;20477;-77
2023/04/07 07:18:44;;;;;;;14.90;10.27;;;;;;;7.47;100.00;153277.63;5073066;28;20533;-77
2023/04/07 07:21:12;;;;;;;13.77;12.33;;;;;;;7.51;100.00;153287.97;5091403;28;20785;-78
2023/04/07 07:23:39;;;;;;;13.07;11.07;;;;;;;7.57;100.00;153304.72;5091036;28;20859;-76
2023/04/07 07:26:05;;;;;;;12.83;9.87;;;;;;;7.64;100.00;153321.56;5065232;28;20473;-76
2023/04/07 07:28:32;;;;;;;12.37;9.50;;;;;;;7.70;100.00;153338.38;5090963;28;20440;-76
2023/04/07 07:30:59;;;;;;;10.80;9.10;;;;;;;7.72;100.00;153342.22;5073743;28;20967;-76
2023/04/07 07:33:26;;;;;;;12.53;9.73;;;;;;;7.84;99.64;153373.19;5071535;28;20481;-77
2023/04/07 07:35:53;;;;;;;13.20;9.70;;;;;;;7.90;100.00;153388.72;5073892;28;20465;-77
2023/04/07 07:38:21;;;;;;;11.83;9.50;;;;;;;7.94;99.79;153399.09;5063588;28;20449;-77
2023/04/07 07:40:47;;;;;;;11.80;9.00;;;;;;;8.04;100.00;153423.63;5063122;28;20450;-77
2023/04/07 07:43:14;;;;;;;11.07;8.80;;;;;;;8.14;100.00;153450.75;5091395;28;20445;-77
2023/04/07 07:45:41;;;;;;;13.90;9.17;;;;;;;8.22;100.00;153471.44;5069954;28;20612;-76
2023/04/07 07:48:07;;;;;;;10.50;9.30;;;;;;;8.28;99.14;153485.69;5090279;28;20528;-77
2023/04/07 07:50:34;;;;;;;12.97;9.90;;;;;;;8.36;99.53;153507.69;5091391;28;20576;-77
2023/04/07 07:53:01;;;;;;;11.10;9.20;;;;;;;8.41;98.76;153520.59;5072308;28;20503;-76
2023/04/07 07:55:29;;;;;;;12.57;10.13;;;;;;;8.52;99.22;153547.75;5092051;28;20456;-77
2023/04/07 07:57:56;;;;;;;12.73;9.53;;;;;;;8.56;98.07;153559.38;5089876;28;20437;-76
2023/04/07 08:00:23;;;;;;;11.23;8.40;;;;;;;8.61;93.88;153569.69;5073522;28;20465;-76
2023/04/07 08:02:50;;;;;;;11.17;8.70;;;;;;;8.75;95.38;153607.19;5073142;28;20445;-76
2023/04/07 08:05:17;;;;;;;9.70;8.20;;;;;;;8.87;96.69;153636.94;5068854;28;20496;-76
2023/04/07 08:07:43;;;;;;;11.70;9.40;;;;;;;8.85;93.75;153631.75;5069121;28;20936;-76
2023/04/07 08:10:10;;;;;;;10.60;8.67;;;;;;;8.87;91.91;153638.22;5048416;28;20454;-76
2023/04/07 08:12:39;;;;;;;11.70;8.97;;;;;;;8.93;90.57;153653.72;5090383;28;20520;-76
2023/04/07 08:15:08;;;;;;;10.07;8.97;;;;;;;9.03;91.25;153678.28;5090103;28;20464;-77
2023/04/07 08:17:35;;;;;;;14.00;9.80;;;;;;;9.23;95.50;153730.03;5088639;28;20451;-77
2023/04/07 08:20:02;;;;;;;12.57;10.00;;;;;;;9.55;94.21;153811.53;5070777;28;20446;-77
2023/04/07 08:22:29;;;;;;;11.83;9.50;;;;;;;9.92;91.96;153906.00;5059188;28;20466;-77
2023/04/07 08:24:56;;;;;;;10.53;9.37;;;;;;;10.13;86.52;153960.41;5055150;28;20552;-77
2023/04/07 08:27:22;;;;;;;9.70;7.90;;;;;;;10.14;88.61;153963.00;5072170;28;20497;-76
2023/04/07 08:29:58;;;;;;;10.03;8.00;;;;;;;10.31;88.21;154007.00;5070908;28;20531;-78
2023/04/07 08:32:25;;;;;;;10.60;8.07;;;;;;;10.46;86.07;154045.81;5054825;28;20452;-78
2023/04/07 08:34:52;;;;;;;9.33;8.17;;;;;;;10.65;87.44;154093.72;5088646;28;20458;-78
2023/04/07 08:37:18;;;;;;;8.40;7.33;;;;;;;10.79;86.91;154130.00;5071912;28;20446;-78
2023/04/07 08:39:45;;;;;;;10.43;8.50;;;;;;;10.83;86.13;154141.63;5087892;28;20554;-78
2023/04/07 08:42:13;;;;;;;7.13;5.60;;;;;;;10.77;79.88;154126.13;5086929;28;20477;-78
2023/04/07 08:44:40;;;;;;;7.27;5.97;;;;;;;10.65;78.58;154095.03;5089481;28;21076;-78
2023/04/07 08:47:10;;;;;;;8.47;5.80;;;;;;;10.60;79.08;154082.06;5062703;28;20492;-78
2023/04/07 08:49:39;;;;;;;7.83;6.60;;;;;;;10.51;79.83;154057.50;5087910;28;20461;-76
2023/04/07 08:52:10;;;;;;;9.43;7.00;;;;;;;10.46;82.88;154045.81;5064386;28;20445;-79
2023/04/07 08:54:37;;;;;;;9.90;6.97;;;;;;;10.54;84.70;154065.28;5089084;28;20488;-78
2023/04/07 08:57:04;;;;;;;7.60;6.80;;;;;;;10.64;85.93;154091.16;5088554;28;20460;-78
2023/04/07 08:59:32;;;;;;;8.00;6.90;;;;;;;10.75;84.34;154120.91;5070522;28;20884;-78
2023/04/07 09:01:59;;;;;;;7.77;6.97;;;;;;;10.91;89.39;154162.34;5088858;28;20446;-78
2023/04/07 09:04:27;;;;;;;9.37;7.17;;;;;;;11.02;91.02;154190.84;5070452;28;20453;-78
2023/04/07 09:06:54;;;;;;;8.63;7.50;;;;;;;11.12;91.21;154214.19;5089636;28;20456;-89
2023/04/07 09:09:21;;;;;;;8.13;6.70;;;;;;;11.16;86.53;154224.53;5089662;28;20481;-89
2023/04/07 09:11:48;;;;;;;9.07;7.63;;;;;;;11.28;87.47;154255.66;5088903;28;20481;-89
2023/04/07 09:14:17;;;;;;;6.37;5.70;;;;;;;11.28;81.23;154256.91;5086580;28;20562;-89
2023/04/07 09:16:44;;;;;;;6.50;5.70;;;;;;;11.22;78.99;154240.09;5085734;28;20568;-88
2023/04/07 09:19:11;;;;;;;9.17;6.70;;;;;;;11.29;79.58;154258.22;5071521;28;20445;-89
2023/04/07 09:21:52;;;;;;;7.80;6.30;;;;;;;11.33;78.05;154268.59;5054729;28;20489;-88
2023/04/07 09:24:23;;;;;;;7.40;5.97;;;;;;;11.37;77.03;154280.25;5087484;28;20482;-88
2023/04/07 09:26:50;;;;;;;6.10;5.50;;;;;;;11.37;77.71;154280.25;5065549;28;20453;-88
2023/04/07 09:29:19;;;;;;;6.20;5.57;;;;;;;11.49;78.05;154310.06;5071259;28;20474;-88
2023/04/07 09:31:48;;;;;;;6.70;5.63;;;;;;;11.51;75.08;154315.25;5086674;28;20454;-88
2023/04/07 09:34:26;;;;;;;6.53;5.93;;;;;;;11.40;77.36;154286.72;5069453;28;20476;-88
2023/04/07 09:36:55;;;;;;;7.57;6.03;;;;;;;11.39;75.93;154284.13;5088182;28;20436;-89
2023/04/07 09:39:22;;;;;;;7.10;5.90;;;;;;;11.31;77.39;154263.38;5069445;28;20549;-88
2023/04/07 09:41:49;;;;;;;8.73;6.20;;;;;;;11.42;77.48;154291.91;5062127;28;20847;-89
2023/04/07 09:44:16;;;;;;;8.57;6.57;;;;;;;11.49;77.81;154310.06;5087776;28;20536;-89
2023/04/07 09:46:49;;;;;;;7.13;6.40;;;;;;;11.52;76.26;154319.09;5070323;28;20526;-89
2023/04/07 09:49:16;;;;;;;6.90;5.93;;;;;;;11.55;76.27;154325.59;5071192;28;20994;-89
2023/04/07 09:51:54;;;;;;;7.70;5.80;;;;;;;11.60;75.83;154338.53;5070627;28;20527;-89
2023/04/07 09:54:34;;;;;;;6.63;5.90;;;;;;;11.60;74.88;154338.53;5059574;28;21086;-89
2023/04/07 09:57:02;;;;;;;6.30;5.70;;;;;;;11.56;75.42;154329.50;5087813;28;20453;-89
2023/04/07 09:59:29;;;;;;;7.03;5.70;;;;;;;11.51;74.13;154315.25;5082144;28;20449;-89
2023/04/07 10:01:56;;;;;;;6.67;5.60;;;;;;;11.45;74.77;154299.69;5071752;28;20450;-89
2023/04/07 10:04:24;;;;;;;9.83;5.23;;;;;;;11.44;74.26;154298.38;5070157;28;20481;-89
2023/04/07 10:06:54;;;;;;;8.20;5.53;;;;;;;11.40;74.29;154288.03;5057790;28;20800;-90
2023/04/07 10:09:21;;;;;;;5.53;4.93;;;;;;;11.47;75.62;154306.16;5082639;28;20533;-89
2023/04/07 10:11:49;;;;;;;6.40;5.70;;;;;;;11.66;75.49;154354.09;5087029;28;20465;-89
2023/04/07 10:14:16;;;;;;;6.90;6.00;;;;;;;11.48;74.92;154307.47;5071063;28;20461;-89
2023/04/07 10:16:43;;;;;;;7.30;6.00;;;;;;;11.49;75.41;154311.31;5062392;28;20477;-89
2023/04/07 10:19:09;;;;;;;8.97;6.10;;;;;;;11.49;76.08;154310.06;5065224;28;20545;-90
2023/04/07 10:21:41;;;;;;;7.03;6.03;;;;;;;11.53;75.70;154320.41;5049255;28;20455;-88
2023/04/07 10:24:19;;;;;;;7.63;5.50;;;;;;;11.54;74.33;154324.28;5060723;28;20485;-88
2023/04/07 10:26:47;;;;;;;6.40;5.30;;;;;;;11.37;75.01;154278.94;5061060;28;20964;-89
2023/04/07 10:29:16;;;;;;;8.20;6.03;;;;;;;11.34;76.59;154271.16;5079081;28;20509;-88
2023/04/07 10:31:44;;;;;;;8.40;6.83;;;;;;;11.19;76.92;154232.31;5065953;28;20806;-88
2023/04/07 10:34:10;;;;;;;6.97;6.20;;;;;;;11.13;76.54;154216.75;5066500;28;20506;-89
2023/04/07 10:37:12;;;;;;;7.40;5.60;;;;;;;11.10;75.68;154208.97;5050151;28;20446;-89
2023/04/07 10:39:40;;;;;;;9.17;6.30;;;;;;;10.93;76.26;154167.53;5084217;28;21037;-88
2023/04/07 10:42:07;;;;;;;7.80;5.93;;;;;;;11.02;75.72;154190.84;5080995;28;20446;-89
2023/04/07 10:44:51;;;;;;;6.90;5.97;;;;;;;11.01;76.19;154187.00;5071635;28;20438;-90
2023/04/07 10:47:18;;;;;;;7.83;6.47;;;;;;;10.98;75.94;154179.22;5052140;28;20453;-90
2023/04/07 10:50:17;;;;;;;8.63;6.83;;;;;;;11.01;76.90;154188.25;5087014;28;20461;-89
2023/04/07 10:52:44;;;;;;;7.00;5.80;;;;;;;10.97;76.37;154177.91;5054489;28;20953;-89
2023/04/07 10:55:36;;;;;;;7.20;5.70;;;;;;;10.94;77.15;154168.81;5054212;28;20585;-89
2023/04/07 10:58:20;;;;;;;8.03;7.23;;;;;;;10.89;77.28;154155.88;5063602;28;20961;-77
2023/04/07 11:01:19;;;;;;;7.20;6.17;;;;;;;10.91;77.71;154162.34;5062742;28;20470;-78
2023/04/07 11:03:57;;;;;;;9.93;6.43;;;;;;;10.98;76.87;154179.22;5063730;28;20449;-78
2023/04/07 11:06:25;;;;;;;7.87;6.33;;;;;;;11.00;76.85;154185.69;5071617;28;20442;-78
2023/04/07 11:08:52;;;;;;;6.80;5.50;;;;;;;11.00;76.80;154185.69;5069550;28;20454;-78
2023/04/07 11:11:36;;;;;;;8.40;6.23;;;;;;;11.16;76.44;154225.84;5068099;28;20450;-78
2023/04/07 11:14:02;;;;;;;8.70;6.60;;;;;;;11.18;74.97;154231.00;5043297;28;20462;-78
2023/04/07 11:16:39;;;;;;;6.97;5.73;;;;;;;11.22;75.52;154241.41;5066434;28;21059;-78
2023/04/07 11:19:06;;;;;;;8.37;6.73;;;;;;;11.20;74.56;154234.94;5069995;28;21063;-78
2023/04/07 11:21:32;;;;;;;6.90;6.20;;;;;;;11.29;74.35;154258.22;5066581;28;20459;-78
2023/04/07 11:23:59;;;;;;;7.07;6.37;;;;;;;11.30;74.91;154260.81;5067785;28;20502;-78
2023/04/07 11:26:27;;;;;;;6.10;5.50;;;;;;;11.36;78.50;154277.63;5068374;28;20450;-78
2023/04/07 11:28:56;;;;;;;6.10;5.03;;;;;;;11.47;77.91;154304.84;5069186;28;20561;-78